Time;durP1;ratioP1;P1;durP2;ratioP2;P2;SDS_P1;SDS_P2;PMS_P1;PMS_P2;Temp;Humidity;BMP_temperature;BMP_pressure;BME280_temperature;BME280_humidity;BME280_pressure;Samples;Min_cycle;Max_cycle;Signal;HPM_P1;HPM_P2
2022/11/04 00:01:25;;;;;;;12.60;1.95;;;;;;;;;;4994689;28;20128;-73
2022/11/04 00:03:51;;;;;;;12.45;2.55;;;;;;;;;;4983622;28;20131;-73
2022/11/04 00:06:17;;;;;;;11.73;1.80;;;;;;;;;;4984443;28;20827;-74
2022/11/04 00:08:46;;;;;;;9.23;1.88;;;;;;;;;;4983407;28;20122;-73
2022/11/04 00:13:56;;;;;;;12.35;1.40;;;;;;;;;;4983482;28;20044;-74
2022/11/04 00:19:08;;;;;;;11.07;2.08;;;;;;;;;;4980065;28;20042;-73
2022/11/04 00:29:44;;;;;;;10.55;1.60;;;;;;;;;;4983656;28;20111;-74
2022/11/04 00:34:55;;;;;;;11.00;1.17;;;;;;;;;;4982465;28;20046;-75
2022/11/04 00:37:22;;;;;;;10.23;1.70;;;;;;;;;;4983734;28;20145;-74
2022/11/04 00:39:49;;;;;;;10.07;1.30;;;;;;;;;;4996503;28;20063;-74
2022/11/04 00:42:18;;;;;;;12.65;1.77;;;;;;;;;;4982152;28;20794;-70
2022/11/04 00:44:45;;;;;;;17.23;1.88;;;;;;;;;;4981732;28;20041;-69
2022/11/04 00:47:13;;;;;;;17.90;2.35;;;;;;;;;;4984347;28;20060;-71
2022/11/04 00:49:39;;;;;;;15.05;1.83;;;;;;;;;;4999482;28;20144;-72
2022/11/04 00:52:04;;;;;;;10.40;1.60;;;;;;;;;;4984960;28;20037;-71
2022/11/04 00:54:30;;;;;;;19.45;2.20;;;;;;;;;;4985074;28;20838;-71
2022/11/04 00:56:57;;;;;;;11.73;1.75;;;;;;;;;;4995953;28;20083;-72
2022/11/04 00:59:22;;;;;;;13.73;1.85;;;;;;;;;;4983465;28;22270;-71
2022/11/04 01:01:48;;;;;;;16.95;1.85;;;;;;;;;;4981026;28;20042;-72
2022/11/04 01:04:16;;;;;;;12.70;1.95;;;;;;;;;;4994983;28;20158;-72
2022/11/04 01:06:41;;;;;;;15.50;2.00;;;;;;;;;;4967089;28;20041;-72
2022/11/04 01:09:07;;;;;;;14.60;2.20;;;;;;;;;;4980663;28;20049;-71
2022/11/04 01:11:33;;;;;;;16.63;2.08;;;;;;;;;;4983096;28;20046;-74
2022/11/04 01:13:58;;;;;;;13.25;2.65;;;;;;;;;;4983154;28;20038;-71
2022/11/04 01:16:24;;;;;;;12.88;1.98;;;;;;;;;;4982151;28;20065;-72
2022/11/04 01:18:49;;;;;;;10.90;2.00;;;;;;;;;;4980554;28;20045;-71
2022/11/04 01:21:16;;;;;;;14.27;2.10;;;;;;;;;;4981795;28;20924;-73
2022/11/04 01:23:42;;;;;;;19.92;3.67;;;;;;;;;;4981970;28;20180;-70
2022/11/04 01:26:11;;;;;;;27.70;3.83;;;;;;;;;;4982386;28;20072;-70
2022/11/04 01:28:37;;;;;;;23.35;3.40;;;;;;;;;;4982117;28;20033;-72
2022/11/04 01:31:06;;;;;;;15.38;5.13;;;;;;;;;;4999645;28;20037;-73
2022/11/04 01:33:33;;;;;;;18.20;4.13;;;;;;;;;;4982949;28;20130;-73
2022/11/04 01:35:59;;;;;;;18.23;3.17;;;;;;;;;;4984176;28;20041;-73
2022/11/04 01:38:25;;;;;;;14.77;4.10;;;;;;;;;;4996129;28;20119;-73
2022/11/04 01:40:50;;;;;;;20.27;3.47;;;;;;;;;;4982384;28;20045;-73
2022/11/04 01:43:19;;;;;;;27.25;4.03;;;;;;;;;;4980043;28;20033;-74
2022/11/04 01:45:46;;;;;;;27.55;2.38;;;;;;;;;;4983184;28;20033;-73
2022/11/04 01:48:19;;;;;;;26.27;3.42;;;;;;;;;;4986980;28;20033;-72
2022/11/04 01:50:45;;;;;;;27.02;3.58;;;;;;;;;;4986818;28;20039;-72
2022/11/04 01:53:25;;;;;;;12.35;3.67;;;;;;;;;;4987196;28;20064;-75
2022/11/04 01:55:53;;;;;;;18.38;4.35;;;;;;;;;;4986557;28;20092;-76
2022/11/04 01:58:22;;;;;;;19.98;4.88;;;;;;;;;;4988152;28;20111;-75
2022/11/04 02:00:48;;;;;;;17.92;5.63;;;;;;;;;;4988548;28;20616;-75
2022/11/04 02:03:15;;;;;;;23.33;7.50;;;;;;;;;;4988492;28;20033;-73
2022/11/04 02:05:41;;;;;;;20.08;7.18;;;;;;;;;;4984771;28;20037;-74
2022/11/04 02:08:08;;;;;;;18.80;5.82;;;;;;;;;;4987920;28;20064;-75
2022/11/04 02:10:36;;;;;;;22.48;11.27;;;;;;;;;;5000549;28;20033;-80
2022/11/04 02:13:02;;;;;;;13.93;4.78;;;;;;;;;;5003406;28;20029;-77
2022/11/04 02:15:41;;;;;;;18.13;4.50;;;;;;;;;;4986958;28;20137;-75
2022/11/04 02:18:21;;;;;;;15.55;3.95;;;;;;;;;;4986499;28;20091;-76
2022/11/04 02:21:05;;;;;;;13.10;4.13;;;;;;;;;;4987337;28;20087;-75
2022/11/04 02:23:31;;;;;;;6.65;2.40;;;;;;;;;;4987999;28;20030;-75
2022/11/04 02:26:22;;;;;;;7.43;1.63;;;;;;;;;;4986119;28;20073;-75
2022/11/04 02:29:06;;;;;;;7.40;2.13;;;;;;;;;;4986972;28;20034;-74
2022/11/04 02:31:35;;;;;;;11.13;1.98;;;;;;;;;;4984878;28;20038;-74
2022/11/04 02:34:04;;;;;;;6.43;1.67;;;;;;;;;;4986844;28;20026;-74
2022/11/04 02:36:49;;;;;;;9.13;2.67;;;;;;;;;;4985597;28;20041;-74
2022/11/04 02:39:14;;;;;;;6.15;1.73;;;;;;;;;;4986207;28;20036;-73
2022/11/04 02:41:41;;;;;;;8.85;2.53;;;;;;;;;;4983798;28;20073;-74
2022/11/04 02:44:20;;;;;;;6.55;2.50;;;;;;;;;;4986916;28;20064;-74
2022/11/04 02:46:53;;;;;;;9.35;3.40;;;;;;;;;;4986126;28;20534;-74
2022/11/04 02:49:28;;;;;;;7.55;2.05;;;;;;;;;;4998291;28;20051;-74
2022/11/04 02:51:56;;;;;;;8.82;2.35;;;;;;;;;;4985732;28;20030;-74
2022/11/04 02:54:21;;;;;;;3.78;1.83;;;;;;;;;;4987167;28;20041;-74
2022/11/04 02:56:49;;;;;;;8.55;1.98;;;;;;;;;;4986948;28;20041;-74
2022/11/04 02:59:35;;;;;;;13.27;3.42;;;;;;;;;;4985834;28;20144;-74
2022/11/04 03:02:03;;;;;;;11.80;3.22;;;;;;;;;;4981157;28;20053;-74
2022/11/04 03:04:31;;;;;;;11.77;3.20;;;;;;;;;;4985351;28;20037;-73
2022/11/04 03:06:57;;;;;;;11.27;4.13;;;;;;;;;;4986079;28;20042;-74
2022/11/04 03:09:24;;;;;;;14.15;4.75;;;;;;;;;;4985038;28;20053;-73
2022/11/04 03:11:50;;;;;;;10.75;2.83;;;;;;;;;;5001225;28;20760;-74
2022/11/04 03:14:19;;;;;;;5.97;2.60;;;;;;;;;;4980164;28;20034;-73
2022/11/04 03:16:50;;;;;;;7.30;2.13;;;;;;;;;;4985951;28;20087;-74
2022/11/04 03:19:19;;;;;;;9.57;2.63;;;;;;;;;;4987547;28;20083;-74
2022/11/04 03:22:07;;;;;;;9.77;2.20;;;;;;;;;;4983941;28;20944;-73
2022/11/04 03:24:33;;;;;;;8.13;2.30;;;;;;;;;;4984345;28;20021;-73
2022/11/04 03:27:04;;;;;;;14.20;2.55;;;;;;;;;;4984495;28;20060;-74
2022/11/04 03:29:33;;;;;;;10.88;2.85;;;;;;;;;;4983399;28;21042;-74
2022/11/04 03:32:03;;;;;;;9.75;2.60;;;;;;;;;;4983323;28;20842;-74
2022/11/04 03:34:29;;;;;;;10.57;2.65;;;;;;;;;;4985432;28;20065;-73
2022/11/04 03:36:55;;;;;;;7.40;2.78;;;;;;;;;;4987860;28;20030;-74
2022/11/04 03:39:20;;;;;;;8.90;2.58;;;;;;;;;;4986780;28;20112;-73
2022/11/04 03:41:48;;;;;;;13.05;2.88;;;;;;;;;;4983350;28;20064;-74
2022/11/04 03:44:13;;;;;;;8.07;2.88;;;;;;;;;;4983202;28;20106;-73
2022/11/04 03:46:39;;;;;;;11.45;3.30;;;;;;;;;;4985741;28;20037;-74
2022/11/04 03:49:05;;;;;;;7.97;3.00;;;;;;;;;;4987448;28;20110;-73
2022/11/04 03:51:33;;;;;;;9.18;3.60;;;;;;;;;;4983427;28;20084;-73
2022/11/04 03:53:58;;;;;;;10.70;3.53;;;;;;;;;;4982513;28;20261;-73
2022/11/04 03:56:24;;;;;;;20.52;3.50;;;;;;;;;;4984463;28;20045;-73
2022/11/04 03:58:49;;;;;;;15.75;3.85;;;;;;;;;;4984968;28;20046;-73
2022/11/04 04:01:14;;;;;;;14.63;4.13;;;;;;;;;;4985931;28;20264;-73
2022/11/04 04:03:44;;;;;;;24.63;5.22;;;;;;;;;;4985555;28;20245;-73
2022/11/04 04:06:14;;;;;;;19.42;3.42;;;;;;;;;;4984519;28;20045;-73
2022/11/04 04:08:42;;;;;;;23.90;3.00;;;;;;;;;;4982695;28;20041;-72
2022/11/04 04:11:10;;;;;;;34.72;4.93;;;;;;;;;;4983113;28;20041;-73
2022/11/04 04:13:45;;;;;;;25.83;3.97;;;;;;;;;;4983396;28;20067;-73
2022/11/04 04:16:31;;;;;;;17.35;2.80;;;;;;;;;;4999192;28;20057;-73
2022/11/04 04:19:05;;;;;;;13.45;3.75;;;;;;;;;;4998808;28;20029;-73
2022/11/04 04:21:36;;;;;;;34.70;11.18;;;;;;;;;;4983121;28;20920;-73
2022/11/04 04:29:33;;;;;;;19.38;7.70;;;;;;;;;;4983982;28;20034;-72
2022/11/04 04:31:59;;;;;;;20.02;7.35;;;;;;;;;;4961180;28;20041;-72
2022/11/04 04:34:28;;;;;;;23.08;7.18;;;;;;;;;;4984017;28;20071;-72
2022/11/04 04:37:01;;;;;;;16.70;7.13;;;;;;;;;;4985699;28;20037;-72
2022/11/04 04:45:02;;;;;;;15.18;5.07;;;;;;;;;;4983529;28;20034;-72
2022/11/04 04:47:54;;;;;;;10.40;3.90;;;;;;;;;;4981838;28;20044;-72
2022/11/04 04:50:20;;;;;;;13.33;4.80;;;;;;;;;;4983923;28;20970;-72
2022/11/04 04:52:49;;;;;;;10.38;3.83;;;;;;;;;;4997785;28;20106;-72
2022/11/04 04:55:15;;;;;;;13.98;4.28;;;;;;;;;;4981239;28;20065;-72
2022/11/04 04:57:42;;;;;;;16.95;4.80;;;;;;;;;;4983790;28;20504;-73
2022/11/04 05:00:12;;;;;;;14.75;4.90;;;;;;;;;;4982098;28;20037;-76
2022/11/04 05:02:37;;;;;;;19.77;6.50;;;;;;;;;;4985228;28;20827;-76
2022/11/04 05:05:03;;;;;;;26.85;9.68;;;;;;;;;;4984384;28;20049;-75
2022/11/04 05:07:28;;;;;;;29.33;10.68;;;;;;;;;;4984698;28;20120;-74
2022/11/04 05:09:54;;;;;;;18.92;7.03;;;;;;;;;;4984678;28;20234;-77
2022/11/04 05:12:20;;;;;;;16.25;6.47;;;;;;;;;;4980870;28;20037;-77
2022/11/04 05:14:45;;;;;;;12.80;5.10;;;;;;;;;;4985241;28;20044;-76
2022/11/04 05:17:10;;;;;;;15.15;5.75;;;;;;;;;;4980578;28;20124;-77
2022/11/04 05:19:35;;;;;;;15.65;7.53;;;;;;;;;;4983024;28;20737;-76
2022/11/04 05:22:01;;;;;;;19.55;9.38;;;;;;;;;;4981164;28;20060;-76
2022/11/04 05:24:26;;;;;;;21.48;7.78;;;;;;;;;;4983301;28;20061;-76
2022/11/04 05:26:51;;;;;;;27.90;10.38;;;;;;;;;;4981040;28;22288;-76
2022/11/04 05:29:17;;;;;;;25.13;10.80;;;;;;;;;;4997367;28;20045;-75
2022/11/04 05:31:42;;;;;;;18.20;7.43;;;;;;;;;;4983662;28;20045;-75
2022/11/04 05:34:11;;;;;;;22.65;9.90;;;;;;;;;;4983905;28;21102;-75
2022/11/04 05:36:37;;;;;;;20.33;8.93;;;;;;;;;;4982929;28;20108;-76
2022/11/04 05:39:02;;;;;;;15.98;5.35;;;;;;;;;;4980845;28;20565;-75
2022/11/04 05:41:27;;;;;;;11.43;5.15;;;;;;;;;;4983317;28;20952;-77
2022/11/04 05:43:56;;;;;;;22.33;14.48;;;;;;;;;;4981413;28;20045;-74
2022/11/04 05:46:22;;;;;;;31.67;18.00;;;;;;;;;;4981132;28;22066;-75
2022/11/04 05:48:49;;;;;;;22.30;12.23;;;;;;;;;;4982781;28;22387;-77
2022/11/04 05:51:16;;;;;;;19.33;10.55;;;;;;;;;;4982335;28;20123;-78
2022/11/04 05:53:44;;;;;;;17.73;9.98;;;;;;;;;;4983945;28;20160;-79
2022/11/04 05:56:10;;;;;;;23.45;14.05;;;;;;;;;;4965671;28;20037;-78
2022/11/04 05:58:35;;;;;;;19.02;11.63;;;;;;;;;;4977928;28;20041;-78
2022/11/04 06:01:11;;;;;;;25.75;11.48;;;;;;;;;;4982753;28;20060;-79
2022/11/04 06:03:38;;;;;;;21.58;11.02;;;;;;;;;;4983449;28;20071;-78
2022/11/04 06:06:04;;;;;;;22.63;11.02;;;;;;;;;;4981772;28;20042;-77
2022/11/04 06:08:30;;;;;;;27.65;15.35;;;;;;;;;;4982131;28;20057;-77
2022/11/04 06:10:58;;;;;;;24.98;14.50;;;;;;;;;;4995319;28;20036;-79
2022/11/04 06:13:26;;;;;;;20.63;10.55;;;;;;;;;;4983973;28;20065;-78
2022/11/04 06:15:54;;;;;;;15.77;7.30;;;;;;;;;;4982956;28;20033;-78
2022/11/04 06:18:19;;;;;;;13.48;4.78;;;;;;;;;;4979418;28;20141;-77
2022/11/04 06:20:45;;;;;;;12.30;3.55;;;;;;;;;;4981771;28;20797;-77
2022/11/04 06:23:10;;;;;;;14.50;2.92;;;;;;;;;;4980069;28;20037;-76
2022/11/04 06:25:35;;;;;;;8.93;2.40;;;;;;;;;;4982615;28;20033;-76
2022/11/04 06:28:01;;;;;;;12.15;2.60;;;;;;;;;;4981815;28;20042;-74
2022/11/04 06:30:27;;;;;;;11.00;3.47;;;;;;;;;;4983246;28;20878;-76
2022/11/04 06:32:54;;;;;;;9.80;3.75;;;;;;;;;;4998090;28;20045;-76
2022/11/04 06:35:19;;;;;;;13.75;5.20;;;;;;;;;;4984912;28;20029;-76
2022/11/04 06:37:45;;;;;;;38.50;25.88;;;;;;;;;;4985683;28;20042;-76
2022/11/04 06:40:10;;;;;;;38.83;22.52;;;;;;;;;;4958693;28;20042;-77
2022/11/04 06:42:36;;;;;;;27.70;17.25;;;;;;;;;;4983774;28;20044;-74
2022/11/04 06:45:03;;;;;;;25.20;14.00;;;;;;;;;;4985280;28;20854;-76
2022/11/04 06:47:29;;;;;;;30.25;17.85;;;;;;;;;;4984874;28;20045;-77
2022/11/04 06:49:54;;;;;;;37.70;25.50;;;;;;;;;;4985400;28;20064;-76
2022/11/04 06:52:20;;;;;;;36.95;25.42;;;;;;;;;;4976856;28;20971;-76
2022/11/04 06:54:46;;;;;;;39.47;26.27;;;;;;;;;;4983223;28;20048;-76
2022/11/04 06:57:12;;;;;;;50.22;32.78;;;;;;;;;;4981286;28;20038;-77
2022/11/04 06:59:37;;;;;;;53.65;34.83;;;;;;;;;;4982573;28;20066;-78
2022/11/04 07:02:03;;;;;;;47.08;30.10;;;;;;;;;;4980512;28;20068;-78
2022/11/04 07:04:29;;;;;;;49.42;28.27;;;;;;;;;;4981938;28;20219;-77
2022/11/04 07:06:55;;;;;;;42.35;26.88;;;;;;;;;;4982069;28;20531;-79
2022/11/04 07:09:21;;;;;;;36.83;22.55;;;;;;;;;;4980109;28;20132;-78
2022/11/04 07:11:46;;;;;;;32.80;19.90;;;;;;;;;;4982377;28;20099;-76
2022/11/04 07:14:12;;;;;;;30.50;18.50;;;;;;;;;;4981565;28;20144;-77
2022/11/04 07:16:38;;;;;;;28.13;15.93;;;;;;;;;;4983708;28;20033;-78
2022/11/04 07:19:04;;;;;;;29.02;17.45;;;;;;;;;;4982282;28;22461;-77
2022/11/04 07:21:29;;;;;;;28.98;17.08;;;;;;;;;;4978232;28;20041;-78
2022/11/04 07:23:54;;;;;;;27.05;16.35;;;;;;;;;;4980678;28;20049;-78
2022/11/04 07:26:22;;;;;;;21.35;9.07;;;;;;;;;;4981963;28;20087;-76
2022/11/04 07:28:48;;;;;;;16.70;7.90;;;;;;;;;;4982869;28;20518;-78
2022/11/04 07:31:14;;;;;;;16.73;6.55;;;;;;;;;;4984908;28;20041;-78
2022/11/04 07:33:39;;;;;;;16.85;6.57;;;;;;;;;;4981038;28;20042;-78
2022/11/04 07:36:06;;;;;;;13.70;5.53;;;;;;;;;;4981154;28;20034;-78
2022/11/04 07:38:33;;;;;;;14.93;8.18;;;;;;;;;;4981859;28;20128;-78
2022/11/04 07:40:59;;;;;;;24.15;14.02;;;;;;;;;;4980779;28;20034;-77
2022/11/04 07:43:26;;;;;;;26.63;14.18;;;;;;;;;;4977660;28;20160;-78
2022/11/04 07:46:02;;;;;;;22.15;11.77;;;;;;;;;;4979287;28;20115;-77
2022/11/04 07:50:56;;;;;;;6.20;3.17;;;;;;;;;;4966342;22;20409;-78
2022/11/04 07:53:22;;;;;;;13.23;3.88;;;;;;;;;;4972758;28;20042;-85
2022/11/04 07:55:49;;;;;;;9.18;2.95;;;;;;;;;;5006961;28;20120;-86
2022/11/04 07:58:15;;;;;;;7.20;1.63;;;;;;;;;;4983758;28;20037;-86
2022/11/04 08:00:42;;;;;;;4.97;1.30;;;;;;;;;;5008468;28;20033;-87
2022/11/04 08:03:10;;;;;;;11.50;1.70;;;;;;;;;;4989057;28;20046;-86
2022/11/04 08:05:37;;;;;;;5.40;1.35;;;;;;;;;;4997080;28;20037;-86
2022/11/04 08:08:03;;;;;;;5.32;1.55;;;;;;;;;;4989425;28;20313;-86
2022/11/04 08:10:29;;;;;;;9.75;1.48;;;;;;;;;;5008032;28;20058;-86
2022/11/04 08:12:57;;;;;;;9.70;1.52;;;;;;;;;;4973263;28;20026;-86
2022/11/04 08:15:22;;;;;;;13.43;1.92;;;;;;;;;;4976609;28;20113;-85
2022/11/04 08:17:50;;;;;;;5.45;1.75;;;;;;;;;;4986694;28;20552;-85
2022/11/04 08:20:16;;;;;;;14.65;2.70;;;;;;;;;;4987302;28;20120;-85
2022/11/04 08:22:42;;;;;;;13.05;2.17;;;;;;;;;;4994536;28;20099;-87
2022/11/04 08:25:10;;;;;;;11.70;2.53;;;;;;;;;;4950196;28;20445;-87
2022/11/04 08:27:35;;;;;;;11.02;2.42;;;;;;;;;;4965744;28;20038;-87
2022/11/04 08:30:12;;;;;;;13.13;3.20;;;;;;;;;;4983953;28;20511;-89
2022/11/04 08:32:50;;;;;;;18.55;3.90;;;;;;;;;;4909157;28;20232;-87
2022/11/04 08:35:21;;;;;;;12.65;3.80;;;;;;;;;;4946778;28;20092;-88
2022/11/04 08:37:58;;;;;;;9.02;2.90;;;;;;;;;;4898302;28;20054;-88
2022/11/04 08:40:27;;;;;;;12.80;2.70;;;;;;;;;;4960852;28;20031;-87
2022/11/04 08:42:52;;;;;;;9.80;2.30;;;;;;;;;;4997904;28;20181;-87
2022/11/04 08:45:17;;;;;;;11.68;2.08;;;;;;;;;;4976546;28;20364;-87
2022/11/04 08:47:43;;;;;;;10.27;2.33;;;;;;;;;;4988714;28;20034;-85
2022/11/04 08:50:10;;;;;;;10.35;1.83;;;;;;;;;;4962451;28;20080;-85
2022/11/04 08:52:39;;;;;;;9.27;2.13;;;;;;;;;;4986591;28;20525;-82
2022/11/04 08:55:04;;;;;;;8.43;1.70;;;;;;;;;;4981249;28;20108;-81
2022/11/04 09:00:31;;;;;;;8.15;1.77;;;;;;;;;;4927937;28;20039;-81
2022/11/04 09:02:57;;;;;;;9.27;1.83;;;;;;;;;;4928730;28;20134;-79
2022/11/04 09:05:22;;;;;;;13.63;1.80;;;;;;;;;;4915224;28;20646;-81
2022/11/04 09:07:48;;;;;;;8.10;1.60;;;;;;;;;;4932561;28;20035;-81
2022/11/04 09:10:13;;;;;;;10.52;1.65;;;;;;;;;;4937083;28;20312;-82
2022/11/04 09:12:39;;;;;;;7.47;1.40;;;;;;;;;;4931630;28;20431;-82
2022/11/04 09:15:07;;;;;;;10.60;1.45;;;;;;;;;;4922511;28;20329;-83
2022/11/04 09:17:32;;;;;;;8.80;1.40;;;;;;;;;;4936198;28;20159;-82
2022/11/04 09:19:57;;;;;;;7.88;1.23;;;;;;;;;;4921134;28;20038;-83
2022/11/04 09:22:23;;;;;;;8.15;1.05;;;;;;;;;;4919213;28;20047;-83
2022/11/04 09:24:48;;;;;;;7.32;1.30;;;;;;;;;;4933816;28;20064;-83
2022/11/04 09:27:14;;;;;;;11.23;2.20;;;;;;;;;;4929486;28;22714;-85
2022/11/04 09:29:40;;;;;;;6.05;1.52;;;;;;;;;;4915125;28;20035;-82
2022/11/04 09:32:06;;;;;;;9.38;1.73;;;;;;;;;;4974379;28;20483;-82
2022/11/04 09:34:32;;;;;;;12.35;1.60;;;;;;;;;;4987688;28;20387;-82
2022/11/04 09:36:57;;;;;;;7.80;1.80;;;;;;;;;;4992856;28;20033;-84
2022/11/04 09:39:24;;;;;;;6.32;1.20;;;;;;;;;;5000100;28;20277;-83
2022/11/04 09:41:49;;;;;;;6.07;1.33;;;;;;;;;;4975614;28;20050;-76
2022/11/04 09:44:22;;;;;;;9.15;1.35;;;;;;;;;;4966902;28;20073;-84
2022/11/04 09:46:48;;;;;;;9.48;1.50;;;;;;;;;;4977427;28;20113;-84
2022/11/04 09:49:15;;;;;;;5.35;1.27;;;;;;;;;;4972705;28;20195;-76
2022/11/04 09:51:45;;;;;;;10.32;1.40;;;;;;;;;;4961662;28;22056;-77
2022/11/04 09:54:33;;;;;;;7.70;1.23;;;;;;;;;;4965127;28;22343;-77
2022/11/04 09:57:07;;;;;;;7.18;1.60;;;;;;;;;;4957182;28;20125;-78
2022/11/04 09:59:33;;;;;;;6.75;1.67;;;;;;;;;;4960834;28;20497;-86
2022/11/04 10:02:10;;;;;;;10.20;1.63;;;;;;;;;;4991181;28;20164;-85
2022/11/04 10:04:54;;;;;;;7.30;1.20;;;;;;;;;;4988534;28;20442;-85
2022/11/04 10:07:36;;;;;;;8.13;1.33;;;;;;;;;;5003671;28;20030;-86
2022/11/04 10:10:10;;;;;;;7.78;1.10;;;;;;;;;;5001136;28;20061;-85
2022/11/04 10:12:41;;;;;;;10.50;1.50;;;;;;;;;;4995841;28;20047;-85
2022/11/04 10:15:28;;;;;;;7.13;1.50;;;;;;;;;;5003447;28;20037;-85
2022/11/04 10:18:14;;;;;;;8.52;1.40;;;;;;;;;;4995613;28;20037;-86
2022/11/04 10:20:39;;;;;;;5.68;1.10;;;;;;;;;;5006147;28;20030;-86
2022/11/04 10:23:05;;;;;;;6.32;1.38;;;;;;;;;;4989803;28;20030;-86
2022/11/04 10:25:41;;;;;;;8.77;2.33;;;;;;;;;;5014854;28;20113;-80
2022/11/04 10:28:11;;;;;;;9.48;2.78;;;;;;;;;;4990273;28;20033;-86
2022/11/04 10:30:39;;;;;;;8.35;1.90;;;;;;;;;;4976511;28;20068;-79
2022/11/04 10:33:15;;;;;;;11.43;1.77;;;;;;;;;;4968115;28;20048;-78
2022/11/04 10:35:46;;;;;;;7.05;1.42;;;;;;;;;;4947791;28;20838;-78
2022/11/04 10:38:31;;;;;;;10.85;1.75;;;;;;;;;;4964600;28;20038;-78
2022/11/04 10:40:56;;;;;;;7.22;1.98;;;;;;;;;;4965296;28;20298;-78
2022/11/04 10:43:31;;;;;;;6.68;1.65;;;;;;;;;;4948690;28;20045;-78
2022/11/04 10:46:03;;;;;;;7.70;2.00;;;;;;;;;;4964843;28;20187;-78
2022/11/04 10:48:33;;;;;;;8.75;1.80;;;;;;;;;;4950887;28;20429;-78
2022/11/04 10:50:58;;;;;;;4.90;1.50;;;;;;;;;;4966265;28;20763;-79
2022/11/04 10:53:30;;;;;;;10.35;1.70;;;;;;;;;;4964715;28;20673;-78
2022/11/04 10:56:23;;;;;;;8.88;1.70;;;;;;;;;;4941872;28;20854;-80
2022/11/04 10:58:49;;;;;;;10.85;1.73;;;;;;;;;;4900050;28;20038;-78
2022/11/04 11:01:30;;;;;;;12.32;1.90;;;;;;;;;;4950073;28;20298;-78
2022/11/04 11:03:58;;;;;;;8.15;1.52;;;;;;;;;;4948526;28;20044;-78
2022/11/04 11:06:32;;;;;;;7.65;1.40;;;;;;;;;;4964308;28;20507;-77
2022/11/04 11:09:00;;;;;;;11.38;1.70;;;;;;;;;;4963541;28;20100;-77
2022/11/04 11:11:39;;;;;;;8.32;1.30;;;;;;;;;;4963199;28;20484;-77
2022/11/04 11:14:30;;;;;;;8.75;1.67;;;;;;;;;;4959507;28;20493;-77
2022/11/04 11:16:56;;;;;;;7.13;1.58;;;;;;;;;;4953452;28;20120;-77
2022/11/04 11:19:24;;;;;;;10.43;1.58;;;;;;;;;;4942846;28;20584;-75
2022/11/04 11:21:51;;;;;;;10.05;1.60;;;;;;;;;;4963397;28;20038;-75
2022/11/04 11:24:21;;;;;;;8.50;1.60;;;;;;;;;;4942634;28;20034;-77
2022/11/04 11:26:48;;;;;;;7.25;1.92;;;;;;;;;;4956249;28;20624;-78
2022/11/04 11:29:43;;;;;;;9.77;2.50;;;;;;;;;;4940241;28;20034;-77
2022/11/04 11:32:26;;;;;;;7.85;1.70;;;;;;;;;;4947565;28;20484;-80
2022/11/04 11:34:54;;;;;;;10.90;1.67;;;;;;;;;;4993521;28;20113;-82
2022/11/04 11:37:23;;;;;;;16.45;2.65;;;;;;;;;;4995415;28;20125;-80
2022/11/04 11:39:49;;;;;;;12.23;1.92;;;;;;;;;;5000986;28;20420;-84
2022/11/04 11:42:18;;;;;;;10.98;2.05;;;;;;;;;;4995509;28;20037;-82
2022/11/04 11:44:49;;;;;;;12.43;1.67;;;;;;;;;;4994082;28;20487;-83
2022/11/04 11:47:41;;;;;;;8.98;1.60;;;;;;;;;;4998307;28;20034;-82
2022/11/04 11:50:12;;;;;;;12.48;2.22;;;;;;;;;;4989204;28;20522;-82
2022/11/04 11:52:41;;;;;;;7.45;1.88;;;;;;;;;;5002828;28;20042;-82
2022/11/04 11:55:31;;;;;;;12.10;1.70;;;;;;;;;;4980611;28;20115;-82
2022/11/04 11:57:59;;;;;;;;;;;;;;;;;;4973343;28;20102;-83
2022/11/04 12:00:31;;;;;;;12.13;2.00;;;;;;;;;;4993130;28;19949;-83
2022/11/04 12:03:06;;;;;;;11.15;1.90;;;;;;;;;;4996233;28;20092;-84
2022/11/04 12:05:37;;;;;;;7.43;1.85;;;;;;;;;;5003313;28;20030;-83
2022/11/04 12:08:15;;;;;;;8.68;2.47;;;;;;;;;;4996347;28;20066;-83
2022/11/04 12:10:51;;;;;;;10.43;2.60;;;;;;;;;;4986159;28;20086;-84
2022/11/04 12:13:27;;;;;;;10.70;3.38;;;;;;;;;;5000716;28;20445;-83
2022/11/04 12:15:53;;;;;;;7.40;2.85;;;;;;;;;;4999249;28;20046;-84
2022/11/04 12:18:36;;;;;;;7.13;1.95;;;;;;;;;;4991615;28;20435;-84
2022/11/04 12:21:11;;;;;;;10.70;1.63;;;;;;;;;;4981022;28;20050;-84
2022/11/04 12:24:01;;;;;;;7.95;1.70;;;;;;;;;;5001638;28;20109;-84
2022/11/04 12:26:27;;;;;;;6.95;1.83;;;;;;;;;;5010239;28;20056;-84
2022/11/04 12:29:11;;;;;;;7.13;1.75;;;;;;;;;;5008133;28;20058;-84
2022/11/04 12:31:36;;;;;;;11.07;2.35;;;;;;;;;;4963501;28;20368;-77
2022/11/04 12:34:08;;;;;;;12.70;5.15;;;;;;;;;;4963213;28;20743;-76
2022/11/04 12:36:37;;;;;;;16.27;5.60;;;;;;;;;;4940569;28;20391;-78
2022/11/04 12:39:06;;;;;;;11.75;4.80;;;;;;;;;;4946001;28;20046;-75
2022/11/04 12:41:36;;;;;;;15.20;3.30;;;;;;;;;;4966166;28;20041;-85
2022/11/04 12:44:02;;;;;;;15.65;2.60;;;;;;;;;;4982798;28;20509;-84
2022/11/04 12:46:33;;;;;;;13.05;2.42;;;;;;;;;;4966626;28;20037;-78
2022/11/04 12:49:04;;;;;;;15.98;2.58;;;;;;;;;;4937156;28;20033;-77
2022/11/04 12:51:30;;;;;;;14.45;1.55;;;;;;;;;;4936774;28;20061;-77
2022/11/04 12:54:04;;;;;;;8.82;1.60;;;;;;;;;;4960332;28;20349;-80
2022/11/04 12:56:37;;;;;;;10.40;1.70;;;;;;;;;;4938640;28;20037;-78
2022/11/04 12:59:37;;;;;;;12.05;1.85;;;;;;;;;;4946251;28;20038;-79
2022/11/04 13:02:03;;;;;;;10.95;1.50;;;;;;;;;;4926235;28;20053;-78
2022/11/04 13:04:57;;;;;;;8.38;1.67;;;;;;;;;;4945846;28;20065;-77
2022/11/04 13:07:28;;;;;;;9.90;1.40;;;;;;;;;;4914833;28;20064;-77
2022/11/04 13:09:57;;;;;;;10.82;1.60;;;;;;;;;;4930742;28;20049;-78
2022/11/04 13:12:40;;;;;;;11.65;1.83;;;;;;;;;;4942218;28;20064;-78
2022/11/04 13:15:06;;;;;;;10.98;1.80;;;;;;;;;;4943319;28;20589;-78
2022/11/04 13:17:38;;;;;;;9.43;1.75;;;;;;;;;;4939318;28;20070;-76
2022/11/04 13:20:16;;;;;;;11.90;1.58;;;;;;;;;;4965634;28;20037;-78
2022/11/04 13:22:44;;;;;;;10.60;1.50;;;;;;;;;;4962611;28;20398;-79
2022/11/04 13:25:15;;;;;;;10.95;2.80;;;;;;;;;;4990850;28;20069;-82
2022/11/04 13:27:44;;;;;;;20.75;1.77;;;;;;;;;;4998111;28;20038;-81
2022/11/04 13:30:22;;;;;;;14.13;1.63;;;;;;;;;;4986551;28;20038;-82
2022/11/04 13:32:52;;;;;;;14.02;2.30;;;;;;;;;;4986874;28;20041;-82
2022/11/04 13:35:30;;;;;;;5.50;1.30;;;;;;;;;;4969570;28;20029;-81
2022/11/04 13:38:03;;;;;;;14.45;1.52;;;;;;;;;;4979778;28;20041;-80
2022/11/04 13:40:44;;;;;;;7.90;1.40;;;;;;;;;;4992449;28;20226;-77
2022/11/04 13:43:37;;;;;;;12.23;2.13;;;;;;;;;;4967290;28;20280;-78
2022/11/04 13:46:04;;;;;;;9.60;1.23;;;;;;;;;;4959764;28;20404;-75
2022/11/04 13:48:31;;;;;;;12.63;1.58;;;;;;;;;;4970353;28;20049;-75
2022/11/04 13:51:01;;;;;;;12.98;1.98;;;;;;;;;;4954404;28;20663;-77
2022/11/04 13:53:59;;;;;;;11.82;1.85;;;;;;;;;;4951434;28;20558;-77
2022/11/04 13:56:26;;;;;;;11.52;1.73;;;;;;;;;;4894355;28;20822;-75
2022/11/04 13:58:53;;;;;;;15.43;2.13;;;;;;;;;;4950425;28;20042;-77
2022/11/04 14:01:24;;;;;;;12.63;1.50;;;;;;;;;;4949471;28;20554;-75
2022/11/04 14:03:51;;;;;;;10.10;1.92;;;;;;;;;;4951664;28;20495;-76
2022/11/04 14:06:37;;;;;;;14.85;1.67;;;;;;;;;;4963672;28;20042;-78
2022/11/04 14:09:20;;;;;;;11.00;1.88;;;;;;;;;;4950963;28;20043;-78
2022/11/04 14:12:05;;;;;;;10.95;1.33;;;;;;;;;;4989970;28;20026;-79
2022/11/04 14:14:30;;;;;;;16.00;1.80;;;;;;;;;;4957288;28;20078;-79
2022/11/04 14:16:56;;;;;;;12.85;1.40;;;;;;;;;;4997331;28;20038;-78
2022/11/04 14:19:41;;;;;;;12.48;1.50;;;;;;;;;;4998920;28;20057;-79
2022/11/04 14:22:12;;;;;;;10.25;1.40;;;;;;;;;;4993133;28;20499;-78
2022/11/04 14:24:40;;;;;;;14.13;1.85;;;;;;;;;;4995567;28;20030;-77
2022/11/04 14:27:21;;;;;;;13.18;1.50;;;;;;;;;;4995126;28;20479;-77
2022/11/04 14:29:51;;;;;;;8.77;1.33;;;;;;;;;;4969846;28;20029;-78
2022/11/04 14:32:19;;;;;;;;;;;;;;;;;;4965509;28;20050;-78
2022/11/04 14:34:44;;;;;;;9.57;1.40;;;;;;;;;;4991822;28;19957;-77
2022/11/04 14:37:24;;;;;;;19.23;2.35;;;;;;;;;;4996759;28;20037;-77
2022/11/04 14:40:00;;;;;;;7.38;1.70;;;;;;;;;;4992252;28;20027;-78
2022/11/04 14:42:45;;;;;;;13.07;1.50;;;;;;;;;;4984683;28;20062;-76
2022/11/04 14:45:15;;;;;;;13.02;1.45;;;;;;;;;;4909858;28;20281;-80
2022/11/04 14:47:42;;;;;;;11.85;1.70;;;;;;;;;;4968445;28;20035;-78
2022/11/04 14:50:17;;;;;;;9.48;1.60;;;;;;;;;;4990620;28;20070;-77
2022/11/04 14:53:06;;;;;;;10.80;1.48;;;;;;;;;;4994368;28;20052;-78
2022/11/04 14:55:33;;;;;;;11.23;1.23;;;;;;;;;;4977289;28;20398;-78
2022/11/04 14:58:19;;;;;;;15.40;1.98;;;;;;;;;;4975214;28;20038;-75
2022/11/04 15:00:47;;;;;;;13.05;1.92;;;;;;;;;;4938623;28;20049;-75
2022/11/04 15:03:21;;;;;;;11.18;1.50;;;;;;;;;;4967545;28;20054;-77
2022/11/04 15:05:48;;;;;;;11.38;1.35;;;;;;;;;;4993184;28;20460;-78
2022/11/04 15:08:33;;;;;;;9.82;1.38;;;;;;;;;;4970845;28;23157;-77
2022/11/04 15:11:05;;;;;;;10.00;1.75;;;;;;;;;;4943390;28;20267;-74
2022/11/04 15:13:42;;;;;;;11.48;1.40;;;;;;;;;;4966147;28;20038;-76
2022/11/04 15:16:22;;;;;;;10.88;1.77;;;;;;;;;;4964498;28;20120;-77
2022/11/04 15:18:52;;;;;;;12.75;1.60;;;;;;;;;;4965740;28;20164;-76
2022/11/04 15:21:18;;;;;;;9.63;1.60;;;;;;;;;;4944836;28;20144;-78
2022/11/04 15:23:53;;;;;;;8.40;1.40;;;;;;;;;;4950946;28;20044;-76